sensor_id;sensor_type;location;lat;lon;timestamp;pressure;altitude;pressure_sealevel;temperature;humidity
1472;BME280;963;42.644;23.336;2022-10-16T00:00:30;94825.34;;;11.02;72.59
1472;BME280;963;42.644;23.336;2022-10-16T00:02:55;94836.22;;;11.16;72.09
1472;BME280;963;42.644;23.336;2022-10-16T00:05:21;94846.66;;;11.12;72.08
1472;BME280;963;42.644;23.336;2022-10-16T00:07:46;94815.47;;;10.79;72.46
1472;BME280;963;42.644;23.336;2022-10-16T00:10:11;94836.56;;;10.99;72.47
1472;BME280;963;42.644;23.336;2022-10-16T00:12:37;94844.19;;;11.04;72.10
1472;BME280;963;42.644;23.336;2022-10-16T00:15:02;94829.34;;;10.95;71.93
1472;BME280;963;42.644;23.336;2022-10-16T00:17:29;94835.81;;;10.98;72.04
1472;BME280;963;42.644;23.336;2022-10-16T00:19:55;94837.25;;;10.95;72.32
1472;BME280;963;42.644;23.336;2022-10-16T00:22:20;94837.94;;;10.92;72.57
1472;BME280;963;42.644;23.336;2022-10-16T00:24:45;94838.78;;;10.96;72.50
1472;BME280;963;42.644;23.336;2022-10-16T00:27:11;94838.09;;;11.00;72.47
1472;BME280;963;42.644;23.336;2022-10-16T00:29:36;94841.41;;;10.96;72.16
1472;BME280;963;42.644;23.336;2022-10-16T00:32:02;94849.31;;;10.96;72.22
1472;BME280;963;42.644;23.336;2022-10-16T00:34:27;94853.13;;;10.99;72.33
1472;BME280;963;42.644;23.336;2022-10-16T00:36:52;94861.97;;;10.91;71.91
1472;BME280;963;42.644;23.336;2022-10-16T00:39:18;94850.50;;;10.83;72.28
1472;BME280;963;42.644;23.336;2022-10-16T00:41:44;94846.41;;;10.70;72.42
1472;BME280;963;42.644;23.336;2022-10-16T00:47:11;94859.06;;;10.64;72.59
1472;BME280;963;42.644;23.336;2022-10-16T00:49:38;94856.59;;;10.56;73.06
1472;BME280;963;42.644;23.336;2022-10-16T00:52:05;94855.84;;;10.55;73.43
1472;BME280;963;42.644;23.336;2022-10-16T00:54:32;94844.38;;;10.48;73.16
1472;BME280;963;42.644;23.336;2022-10-16T00:57:01;94867.53;;;10.42;73.49
1472;BME280;963;42.644;23.336;2022-10-16T00:59:30;94849.88;;;10.43;73.71
1472;BME280;963;42.644;23.336;2022-10-16T01:01:57;94849.78;;;10.39;73.54
1472;BME280;963;42.644;23.336;2022-10-16T01:04:24;94853.16;;;10.40;73.45
1472;BME280;963;42.644;23.336;2022-10-16T01:09:46;94865.78;;;10.34;73.50
1472;BME280;963;42.644;23.336;2022-10-16T01:17:27;94860.88;;;10.32;74.09
1472;BME280;963;42.644;23.336;2022-10-16T01:20:08;94863.50;;;10.32;74.09
1472;BME280;963;42.644;23.336;2022-10-16T01:25:11;94853.16;;;10.40;73.95
1472;BME280;963;42.644;23.336;2022-10-16T01:27:40;94843.31;;;10.37;73.89
1472;BME280;963;42.644;23.336;2022-10-16T01:30:15;94842.34;;;10.41;73.22
1472;BME280;963;42.644;23.336;2022-10-16T01:32:43;94861.50;;;10.42;73.54
1472;BME280;963;42.644;23.336;2022-10-16T01:38:10;94839.91;;;10.20;75.07
1472;BME280;963;42.644;23.336;2022-10-16T01:40:39;94841.03;;;10.35;74.33
1472;BME280;963;42.644;23.336;2022-10-16T01:43:13;94832.63;;;10.29;73.80
1472;BME280;963;42.644;23.336;2022-10-16T01:45:41;94863.84;;;10.31;74.70
1472;BME280;963;42.644;23.336;2022-10-16T01:48:07;94840.34;;;10.38;74.52
1472;BME280;963;42.644;23.336;2022-10-16T01:50:38;94849.25;;;10.33;74.89
1472;BME280;963;42.644;23.336;2022-10-16T01:53:05;94842.66;;;10.40;74.98
1472;BME280;963;42.644;23.336;2022-10-16T01:55:36;94839.78;;;10.45;73.82
1472;BME280;963;42.644;23.336;2022-10-16T01:58:05;94842.66;;;10.40;73.96
1472;BME280;963;42.644;23.336;2022-10-16T02:00:33;94855.50;;;10.41;73.71
1472;BME280;963;42.644;23.336;2022-10-16T02:03:01;94854.25;;;10.39;73.90
1472;BME280;963;42.644;23.336;2022-10-16T02:05:34;94846.63;;;10.33;74.16
1472;BME280;963;42.644;23.336;2022-10-16T02:08:02;94858.25;;;10.32;73.48
1472;BME280;963;42.644;23.336;2022-10-16T02:10:28;94860.53;;;10.34;73.17
1472;BME280;963;42.644;23.336;2022-10-16T02:13:21;94861.97;;;10.31;72.99
1472;BME280;963;42.644;23.336;2022-10-16T02:15:48;94870.09;;;10.26;73.09
1472;BME280;963;42.644;23.336;2022-10-16T02:18:13;94864.00;;;10.22;73.31
1472;BME280;963;42.644;23.336;2022-10-16T02:23:19;94878.44;;;10.28;73.41
1472;BME280;963;42.644;23.336;2022-10-16T02:25:47;94881.38;;;10.27;73.24
1472;BME280;963;42.644;23.336;2022-10-16T02:28:17;94875.81;;;10.28;72.90
1472;BME280;963;42.644;23.336;2022-10-16T02:31:00;94887.59;;;10.34;73.10
1472;BME280;963;42.644;23.336;2022-10-16T02:33:28;94887.59;;;10.34;72.82
1472;BME280;963;42.644;23.336;2022-10-16T02:35:55;94889.13;;;10.36;73.35
1472;BME280;963;42.644;23.336;2022-10-16T02:38:22;94886.50;;;10.36;72.93
1472;BME280;963;42.644;23.336;2022-10-16T02:40:48;94889.47;;;10.34;73.48
1472;BME280;963;42.644;23.336;2022-10-16T02:43:14;94909.97;;;10.28;73.50
1472;BME280;963;42.644;23.336;2022-10-16T02:45:39;94877.56;;;10.24;73.91
1472;BME280;963;42.644;23.336;2022-10-16T02:48:05;94889.72;;;10.29;74.02
1472;BME280;963;42.644;23.336;2022-10-16T02:50:31;94889.03;;;10.32;73.90
1472;BME280;963;42.644;23.336;2022-10-16T02:52:56;94884.53;;;10.32;74.07
1472;BME280;963;42.644;23.336;2022-10-16T02:55:22;94898.78;;;10.31;73.98
1472;BME280;963;42.644;23.336;2022-10-16T02:57:47;94897.88;;;10.40;73.61
1472;BME280;963;42.644;23.336;2022-10-16T03:00:14;94885.72;;;10.35;73.38
1472;BME280;963;42.644;23.336;2022-10-16T03:02:40;94906.44;;;10.37;73.70
1472;BME280;963;42.644;23.336;2022-10-16T03:05:06;94898.78;;;10.31;74.11
1472;BME280;963;42.644;23.336;2022-10-16T03:07:32;94897.94;;;10.27;74.27
1472;BME280;963;42.644;23.336;2022-10-16T03:09:57;94898.50;;;10.21;74.06
1472;BME280;963;42.644;23.336;2022-10-16T03:12:28;94907.94;;;10.22;74.09
1472;BME280;963;42.644;23.336;2022-10-16T03:14:54;94908.56;;;10.19;74.27
1472;BME280;963;42.644;23.336;2022-10-16T03:17:20;94919.41;;;10.17;74.13
1472;BME280;963;42.644;23.336;2022-10-16T03:19:45;94908.91;;;10.17;74.09
1472;BME280;963;42.644;23.336;2022-10-16T03:22:10;94914.16;;;10.17;74.50
1472;BME280;963;42.644;23.336;2022-10-16T03:24:36;94912.78;;;10.08;74.74
1472;BME280;963;42.644;23.336;2022-10-16T03:27:01;94933.13;;;10.11;74.86
1472;BME280;963;42.644;23.336;2022-10-16T03:29:27;94918.56;;;10.01;74.89
1472;BME280;963;42.644;23.336;2022-10-16T03:31:54;94921.09;;;9.97;75.04
1472;BME280;963;42.644;23.336;2022-10-16T03:34:20;94920.25;;;9.93;75.21
1472;BME280;963;42.644;23.336;2022-10-16T03:36:45;94930.00;;;9.93;75.58
1472;BME280;963;42.644;23.336;2022-10-16T03:39:10;94921.69;;;9.91;75.81
1472;BME280;963;42.644;23.336;2022-10-16T03:41:36;94924.31;;;9.91;75.55
1472;BME280;963;42.644;23.336;2022-10-16T03:44:01;94936.78;;;9.94;75.52
1472;BME280;963;42.644;23.336;2022-10-16T03:46:27;94915.56;;;9.87;75.54
1472;BME280;963;42.644;23.336;2022-10-16T03:48:52;94925.88;;;9.80;75.85
1472;BME280;963;42.644;23.336;2022-10-16T03:51:18;94916.13;;;9.80;76.07
1472;BME280;963;42.644;23.336;2022-10-16T03:53:43;94920.31;;;9.69;76.60
1472;BME280;963;42.644;23.336;2022-10-16T03:56:08;94914.06;;;9.61;76.46
1472;BME280;963;42.644;23.336;2022-10-16T03:58:34;94907.06;;;9.53;76.52
1472;BME280;963;42.644;23.336;2022-10-16T04:00:59;94907.72;;;9.50;76.54
1472;BME280;963;42.644;23.336;2022-10-16T04:03:25;94912.56;;;9.48;76.44
1472;BME280;963;42.644;23.336;2022-10-16T04:05:50;94900.75;;;9.42;76.89
1472;BME280;963;42.644;23.336;2022-10-16T04:08:16;94925.47;;;9.41;76.81
1472;BME280;963;42.644;23.336;2022-10-16T04:10:45;94914.09;;;9.37;77.52
1472;BME280;963;42.644;23.336;2022-10-16T04:13:11;94918.47;;;9.33;77.55
1472;BME280;963;42.644;23.336;2022-10-16T04:15:36;94922.75;;;9.37;77.42
1472;BME280;963;42.644;23.336;2022-10-16T04:18:01;94906.66;;;9.39;77.66
1472;BME280;963;42.644;23.336;2022-10-16T04:20:27;94904.03;;;9.39;77.57
1472;BME280;963;42.644;23.336;2022-10-16T04:22:52;94923.50;;;9.50;77.08
1472;BME280;963;42.644;23.336;2022-10-16T04:25:18;94923.06;;;9.48;76.35
1472;BME280;963;42.644;23.336;2022-10-16T04:27:43;94915.94;;;9.49;76.42
1472;BME280;963;42.644;23.336;2022-10-16T04:30:09;94920.44;;;9.48;76.30
1472;BME280;963;42.644;23.336;2022-10-16T04:32:35;94912.56;;;9.36;75.85
1472;BME280;963;42.644;23.336;2022-10-16T04:35:00;94921.00;;;9.42;76.22
1472;BME280;963;42.644;23.336;2022-10-16T04:37:26;94928.09;;;9.41;75.83
1472;BME280;963;42.644;23.336;2022-10-16T04:39:53;94921.53;;;9.35;75.81
1472;BME280;963;42.644;23.336;2022-10-16T04:42:19;94936.63;;;9.38;76.59
1472;BME280;963;42.644;23.336;2022-10-16T04:44:44;94941.88;;;9.38;76.68
1472;BME280;963;42.644;23.336;2022-10-16T04:47:10;94934.00;;;9.38;76.79
1472;BME280;963;42.644;23.336;2022-10-16T04:49:35;94939.69;;;9.40;76.65
1472;BME280;963;42.644;23.336;2022-10-16T04:52:01;94938.16;;;9.39;76.85
1472;BME280;963;42.644;23.336;2022-10-16T04:54:26;94945.50;;;9.33;77.11
1472;BME280;963;42.644;23.336;2022-10-16T04:56:52;94952.28;;;9.34;76.52
1472;BME280;963;42.644;23.336;2022-10-16T04:59:18;94949.22;;;9.32;76.67
1472;BME280;963;42.644;23.336;2022-10-16T05:01:44;94953.47;;;9.37;76.36
1472;BME280;963;42.644;23.336;2022-10-16T05:04:10;94955.56;;;9.44;76.82
1472;BME280;963;42.644;23.336;2022-10-16T05:06:37;94955.13;;;9.42;76.87
1472;BME280;963;42.644;23.336;2022-10-16T05:09:04;94954.47;;;9.45;76.15
1472;BME280;963;42.644;23.336;2022-10-16T05:11:29;94956.63;;;9.55;75.87
1472;BME280;963;42.644;23.336;2022-10-16T05:13:55;94966.38;;;9.54;75.89
1472;BME280;963;42.644;23.336;2022-10-16T05:16:20;94962.97;;;9.54;76.09
1472;BME280;963;42.644;23.336;2022-10-16T05:18:45;94963.31;;;9.52;76.20
1472;BME280;963;42.644;23.336;2022-10-16T05:21:11;94977.31;;;9.56;75.74
1472;BME280;963;42.644;23.336;2022-10-16T05:23:36;94961.03;;;9.51;76.43
1472;BME280;963;42.644;23.336;2022-10-16T05:26:02;94970.63;;;9.59;75.91
1472;BME280;963;42.644;23.336;2022-10-16T05:28:28;94975.03;;;9.67;76.22
1472;BME280;963;42.644;23.336;2022-10-16T05:30:55;94969.88;;;9.70;76.24
1472;BME280;963;42.644;23.336;2022-10-16T05:33:22;94967.69;;;9.73;76.13
1472;BME280;963;42.644;23.336;2022-10-16T05:35:47;94974.47;;;9.74;76.21
1472;BME280;963;42.644;23.336;2022-10-16T05:38:13;94977.53;;;9.76;76.36
1472;BME280;963;42.644;23.336;2022-10-16T05:40:38;94960.69;;;9.77;76.70
1472;BME280;963;42.644;23.336;2022-10-16T05:43:04;94972.38;;;9.79;76.12
1472;BME280;963;42.644;23.336;2022-10-16T05:45:30;94974.25;;;9.79;74.92
1472;BME280;963;42.644;23.336;2022-10-16T05:47:55;95009.94;;;9.80;74.05
1472;BME280;963;42.644;23.336;2022-10-16T05:50:20;94976.00;;;9.87;72.99
1472;BME280;963;42.644;23.336;2022-10-16T05:52:46;94981.69;;;9.89;72.98
1472;BME280;963;42.644;23.336;2022-10-16T05:55:11;94983.88;;;9.87;73.44
1472;BME280;963;42.644;23.336;2022-10-16T05:57:37;95000.19;;;9.92;72.63
1472;BME280;963;42.644;23.336;2022-10-16T06:00:03;95003.44;;;10.01;72.27
1472;BME280;963;42.644;23.336;2022-10-16T06:02:29;94986.69;;;10.06;71.72
1472;BME280;963;42.644;23.336;2022-10-16T06:04:54;94987.66;;;10.14;72.11
1472;BME280;963;42.644;23.336;2022-10-16T06:07:20;95008.16;;;10.20;72.18
1472;BME280;963;42.644;23.336;2022-10-16T06:09:50;95017.09;;;10.31;72.05
1472;BME280;963;42.644;23.336;2022-10-16T06:12:16;95010.41;;;10.34;71.87
1472;BME280;963;42.644;23.336;2022-10-16T06:14:41;95010.75;;;10.45;71.00
1472;BME280;963;42.644;23.336;2022-10-16T06:17:07;95004.81;;;10.48;70.97
1472;BME280;963;42.644;23.336;2022-10-16T06:19:32;95017.66;;;10.65;70.46
1472;BME280;963;42.644;23.336;2022-10-16T06:21:57;95016.13;;;10.64;69.63
1472;BME280;963;42.644;23.336;2022-10-16T06:24:24;95020.25;;;10.77;69.86
1472;BME280;963;42.644;23.336;2022-10-16T06:26:49;95036.25;;;10.84;69.51
1472;BME280;963;42.644;23.336;2022-10-16T06:29:15;95035.06;;;10.82;69.78
1472;BME280;963;42.644;23.336;2022-10-16T06:31:40;95019.78;;;10.87;69.63
1472;BME280;963;42.644;23.336;2022-10-16T06:34:06;95042.19;;;10.81;69.80
1472;BME280;963;42.644;23.336;2022-10-16T06:36:36;95024.81;;;10.92;69.41
1472;BME280;963;42.644;23.336;2022-10-16T06:39:01;95025.50;;;11.05;69.35
1472;BME280;963;42.644;23.336;2022-10-16T06:41:27;95035.94;;;11.02;70.23
1472;BME280;963;42.644;23.336;2022-10-16T06:43:52;95030.44;;;11.07;70.06
1472;BME280;963;42.644;23.336;2022-10-16T06:46:21;95044.00;;;10.93;70.73
1472;BME280;963;42.644;23.336;2022-10-16T06:48:47;95031.91;;;11.20;70.24
1472;BME280;963;42.644;23.336;2022-10-16T06:51:15;95037.88;;;11.33;69.81
1472;BME280;963;42.644;23.336;2022-10-16T06:53:43;95034.91;;;11.34;69.30
1472;BME280;963;42.644;23.336;2022-10-16T06:56:09;95049.28;;;11.52;69.32
1472;BME280;963;42.644;23.336;2022-10-16T06:58:36;95051.53;;;11.38;69.61
1472;BME280;963;42.644;23.336;2022-10-16T07:01:01;95048.16;;;11.69;68.76
1472;BME280;963;42.644;23.336;2022-10-16T07:03:27;95053.72;;;11.80;68.06
1472;BME280;963;42.644;23.336;2022-10-16T07:05:52;95040.88;;;11.78;67.65
1472;BME280;963;42.644;23.336;2022-10-16T07:08:17;95051.91;;;11.84;67.72
1472;BME280;963;42.644;23.336;2022-10-16T07:10:43;95052.69;;;12.00;67.29
1472;BME280;963;42.644;23.336;2022-10-16T07:13:08;95041.97;;;11.62;67.68
1472;BME280;963;42.644;23.336;2022-10-16T07:15:34;95057.44;;;11.79;67.83
1472;BME280;963;42.644;23.336;2022-10-16T07:17:59;95054.19;;;11.70;67.60
1472;BME280;963;42.644;23.336;2022-10-16T07:20:25;95068.44;;;11.97;67.21
1472;BME280;963;42.644;23.336;2022-10-16T07:22:51;95057.28;;;12.03;66.47
1472;BME280;963;42.644;23.336;2022-10-16T07:25:16;95056.16;;;11.88;67.12
1472;BME280;963;42.644;23.336;2022-10-16T07:27:42;95068.56;;;11.56;68.19
1472;BME280;963;42.644;23.336;2022-10-16T07:30:08;95073.06;;;11.72;68.46
1472;BME280;963;42.644;23.336;2022-10-16T07:32:33;95081.28;;;11.98;67.85
1472;BME280;963;42.644;23.336;2022-10-16T07:34:59;95067.63;;;12.28;67.32
1472;BME280;963;42.644;23.336;2022-10-16T07:37:24;95059.59;;;12.40;66.86
1472;BME280;963;42.644;23.336;2022-10-16T07:39:49;95063.47;;;12.46;66.53
1472;BME280;963;42.644;23.336;2022-10-16T07:42:15;95056.63;;;12.26;66.72
1472;BME280;963;42.644;23.336;2022-10-16T07:44:40;95076.66;;;12.46;66.41
1472;BME280;963;42.644;23.336;2022-10-16T07:47:07;95068.91;;;12.53;66.73
1472;BME280;963;42.644;23.336;2022-10-16T07:49:32;95078.66;;;12.68;66.05
1472;BME280;963;42.644;23.336;2022-10-16T07:51:57;95079.78;;;12.67;66.10
1472;BME280;963;42.644;23.336;2022-10-16T07:54:23;95061.22;;;12.83;65.86
1472;BME280;963;42.644;23.336;2022-10-16T07:56:48;95065.66;;;12.79;65.55
1472;BME280;963;42.644;23.336;2022-10-16T07:59:14;95063.72;;;12.95;64.82
1472;BME280;963;42.644;23.336;2022-10-16T08:01:40;95075.72;;;12.93;64.34
1472;BME280;963;42.644;23.336;2022-10-16T08:04:08;95073.16;;;13.15;64.42
1472;BME280;963;42.644;23.336;2022-10-16T08:06:38;95076.44;;;13.09;65.20
1472;BME280;963;42.644;23.336;2022-10-16T08:09:06;95067.63;;;13.21;64.10
1472;BME280;963;42.644;23.336;2022-10-16T08:11:32;95070.59;;;13.38;63.86
1472;BME280;963;42.644;23.336;2022-10-16T08:13:57;95078.47;;;13.58;62.93
1472;BME280;963;42.644;23.336;2022-10-16T08:16:23;95073.75;;;13.70;62.78
1472;BME280;963;42.644;23.336;2022-10-16T08:18:49;95079.41;;;13.69;63.08
1472;BME280;963;42.644;23.336;2022-10-16T08:21:18;95068.94;;;13.99;62.41
1472;BME280;963;42.644;23.336;2022-10-16T08:23:44;95064.41;;;13.99;62.09
1472;BME280;963;42.644;23.336;2022-10-16T08:26:10;95065.31;;;13.38;63.28
1472;BME280;963;42.644;23.336;2022-10-16T08:28:36;95078.94;;;13.86;62.30
1472;BME280;963;42.644;23.336;2022-10-16T08:31:06;95070.09;;;14.01;61.32
1472;BME280;963;42.644;23.336;2022-10-16T08:33:32;95056.75;;;14.17;60.81
1472;BME280;963;42.644;23.336;2022-10-16T08:35:58;95058.50;;;14.36;60.46
1472;BME280;963;42.644;23.336;2022-10-16T08:38:24;95052.09;;;14.37;59.30
1472;BME280;963;42.644;23.336;2022-10-16T08:40:49;95066.97;;;14.45;59.29
1472;BME280;963;42.644;23.336;2022-10-16T08:43:40;95065.88;;;14.76;58.21
1472;BME280;963;42.644;23.336;2022-10-16T08:48:46;95062.81;;;15.04;57.31
1472;BME280;963;42.644;23.336;2022-10-16T08:51:19;95062.53;;;15.16;56.68
1472;BME280;963;42.644;23.336;2022-10-16T08:53:58;95064.25;;;15.31;55.18
1472;BME280;963;42.644;23.336;2022-10-16T08:56:25;95065.78;;;15.36;55.14
1472;BME280;963;42.644;23.336;2022-10-16T08:58:52;95071.97;;;15.47;53.91
1472;BME280;963;42.644;23.336;2022-10-16T09:01:20;95067.59;;;15.62;51.25
1472;BME280;963;42.644;23.336;2022-10-16T09:06:58;95067.31;;;15.00;52.77
1472;BME280;963;42.644;23.336;2022-10-16T09:15:12;95068.13;;;15.82;48.96
1472;BME280;963;42.644;23.336;2022-10-16T09:20:24;95062.16;;;15.95;50.20
1472;BME280;963;42.644;23.336;2022-10-16T09:23:00;95063.44;;;16.12;50.30
1472;BME280;963;42.644;23.336;2022-10-16T09:25:33;95062.81;;;16.33;49.76
1472;BME280;963;42.644;23.336;2022-10-16T09:28:00;95073.53;;;16.47;48.63
1472;BME280;963;42.644;23.336;2022-10-16T09:30:28;95052.03;;;16.05;47.44
1472;BME280;963;42.644;23.336;2022-10-16T09:32:57;95062.44;;;16.35;47.43
1472;BME280;963;42.644;23.336;2022-10-16T09:35:32;95071.75;;;16.66;47.27
1472;BME280;963;42.644;23.336;2022-10-16T09:37:58;95050.66;;;16.32;45.97
1472;BME280;963;42.644;23.336;2022-10-16T09:40:29;95046.34;;;16.68;46.99
1472;BME280;963;42.644;23.336;2022-10-16T09:43:26;95064.31;;;17.03;46.59
1472;BME280;963;42.644;23.336;2022-10-16T09:48:50;95043.53;;;17.37;45.76
1472;BME280;963;42.644;23.336;2022-10-16T09:51:24;95056.13;;;17.58;45.94
1472;BME280;963;42.644;23.336;2022-10-16T09:54:36;95042.88;;;17.94;44.82
1472;BME280;963;42.644;23.336;2022-10-16T09:56:42;95048.91;;;18.16;43.71
1472;BME280;963;42.644;23.336;2022-10-16T09:59:13;95044.34;;;17.63;44.25
1472;BME280;963;42.644;23.336;2022-10-16T10:01:49;95040.56;;;17.67;43.84
1472;BME280;963;42.644;23.336;2022-10-16T10:04:16;95036.00;;;18.00;44.41
1472;BME280;963;42.644;23.336;2022-10-16T10:06:48;95032.13;;;18.43;43.94
1472;BME280;963;42.644;23.336;2022-10-16T10:09:18;95024.81;;;18.80;43.10
1472;BME280;963;42.644;23.336;2022-10-16T10:11:47;95024.44;;;18.81;42.37
1472;BME280;963;42.644;23.336;2022-10-16T10:14:17;95023.91;;;19.15;42.39
1472;BME280;963;42.644;23.336;2022-10-16T10:16:44;95027.22;;;19.36;41.28
1472;BME280;963;42.644;23.336;2022-10-16T10:19:18;95030.41;;;19.10;41.08
1472;BME280;963;42.644;23.336;2022-10-16T10:21:43;95029.63;;;19.10;40.50
1472;BME280;963;42.644;23.336;2022-10-16T10:24:11;95023.78;;;19.36;40.89
1472;BME280;963;42.644;23.336;2022-10-16T10:26:38;95025.47;;;19.75;40.03
1472;BME280;963;42.644;23.336;2022-10-16T10:29:27;95020.22;;;19.57;40.31
1472;BME280;963;42.644;23.336;2022-10-16T10:32:12;95017.81;;;19.77;39.65
1472;BME280;963;42.644;23.336;2022-10-16T10:35:05;95019.56;;;19.94;39.28
1472;BME280;963;42.644;23.336;2022-10-16T10:45:48;94995.00;;;20.13;39.47
1472;BME280;963;42.644;23.336;2022-10-16T10:51:20;94999.75;;;20.33;38.51
1472;BME280;963;42.644;23.336;2022-10-16T10:56:41;94992.47;;;20.71;37.86
1472;BME280;963;42.644;23.336;2022-10-16T11:01:54;94999.50;;;20.57;37.63
1472;BME280;963;42.644;23.336;2022-10-16T11:07:04;94981.16;;;21.20;36.83
1472;BME280;963;42.644;23.336;2022-10-16T11:10:03;94977.47;;;21.38;36.40
1472;BME280;963;42.644;23.336;2022-10-16T11:12:38;94962.25;;;21.81;35.63
1472;BME280;963;42.644;23.336;2022-10-16T11:15:28;94967.16;;;22.30;34.43
1472;BME280;963;42.644;23.336;2022-10-16T11:20:32;94964.44;;;22.53;33.00
1472;BME280;963;42.644;23.336;2022-10-16T11:25:45;94975.44;;;21.96;31.94
1472;BME280;963;42.644;23.336;2022-10-16T11:28:23;94965.59;;;21.66;33.11
1472;BME280;963;42.644;23.336;2022-10-16T11:30:57;94974.06;;;22.31;31.88
1472;BME280;963;42.644;23.336;2022-10-16T11:52:52;94966.53;;;23.01;30.16
1472;BME280;963;42.644;23.336;2022-10-16T11:55:23;94970.75;;;23.55;30.27
1472;BME280;963;42.644;23.336;2022-10-16T11:58:03;94977.63;;;23.88;30.34
1472;BME280;963;42.644;23.336;2022-10-16T12:00:41;94962.66;;;24.04;30.64
1472;BME280;963;42.644;23.336;2022-10-16T12:03:30;94967.16;;;24.23;31.03
1472;BME280;963;42.644;23.336;2022-10-16T12:08:43;94966.38;;;24.68;30.78
1472;BME280;963;42.644;23.336;2022-10-16T12:13:49;94954.41;;;25.10;29.77
1472;BME280;963;42.644;23.336;2022-10-16T12:18:42;94964.13;;;24.37;30.26
1472;BME280;963;42.644;23.336;2022-10-16T12:21:10;94969.28;;;24.73;28.93
1472;BME280;963;42.644;23.336;2022-10-16T12:23:55;94960.72;;;25.54;28.62
1472;BME280;963;42.644;23.336;2022-10-16T12:26:39;94969.09;;;26.07;28.08
1472;BME280;963;42.644;23.336;2022-10-16T12:29:19;94956.13;;;26.37;27.63
1472;BME280;963;42.644;23.336;2022-10-16T12:31:48;94965.34;;;26.27;27.22
1472;BME280;963;42.644;23.336;2022-10-16T12:34:42;94960.63;;;26.53;27.29
1472;BME280;963;42.644;23.336;2022-10-16T12:37:14;94969.88;;;26.73;27.08
1472;BME280;963;42.644;23.336;2022-10-16T12:39:43;94959.88;;;26.52;27.58
1472;BME280;963;42.644;23.336;2022-10-16T12:44:52;94952.03;;;26.32;28.88
1472;BME280;963;42.644;23.336;2022-10-16T12:49:57;94959.06;;;26.95;27.46
1472;BME280;963;42.644;23.336;2022-10-16T12:55:00;94964.94;;;27.25;27.34
1472;BME280;963;42.644;23.336;2022-10-16T13:00:50;94973.22;;;27.70;27.15
1472;BME280;963;42.644;23.336;2022-10-16T13:06:33;94973.59;;;26.89;27.14
1472;BME280;963;42.644;23.336;2022-10-16T13:09:15;94977.44;;;27.00;27.18
1472;BME280;963;42.644;23.336;2022-10-16T13:22:58;94966.41;;;28.24;26.17
1472;BME280;963;42.644;23.336;2022-10-16T13:25:44;94972.69;;;28.76;26.59
1472;BME280;963;42.644;23.336;2022-10-16T13:28:14;94965.09;;;29.17;25.50
1472;BME280;963;42.644;23.336;2022-10-16T13:30:51;94960.47;;;29.41;25.85
1472;BME280;963;42.644;23.336;2022-10-16T13:33:37;94961.91;;;29.61;25.13
1472;BME280;963;42.644;23.336;2022-10-16T13:36:05;94967.72;;;29.77;25.22
1472;BME280;963;42.644;23.336;2022-10-16T13:38:33;94970.06;;;30.08;24.53
1472;BME280;963;42.644;23.336;2022-10-16T13:41:01;94975.84;;;30.25;24.94
1472;BME280;963;42.644;23.336;2022-10-16T13:43:41;94971.25;;;30.55;24.53
1472;BME280;963;42.644;23.336;2022-10-16T13:46:19;94953.09;;;30.61;24.14
1472;BME280;963;42.644;23.336;2022-10-16T13:49:03;94964.81;;;30.97;23.89
1472;BME280;963;42.644;23.336;2022-10-16T13:51:29;94967.81;;;31.28;23.88
1472;BME280;963;42.644;23.336;2022-10-16T13:53:55;94966.84;;;31.81;23.63
1472;BME280;963;42.644;23.336;2022-10-16T13:56:24;94969.47;;;32.31;22.85
1472;BME280;963;42.644;23.336;2022-10-16T13:59:02;94975.53;;;32.87;22.05
1472;BME280;963;42.644;23.336;2022-10-16T14:01:39;94975.16;;;33.68;21.91
1472;BME280;963;42.644;23.336;2022-10-16T14:04:07;94974.88;;;34.68;20.91
1472;BME280;963;42.644;23.336;2022-10-16T14:06:35;94969.75;;;35.32;20.97
1472;BME280;963;42.644;23.336;2022-10-16T14:09:25;94977.28;;;36.23;20.05
1472;BME280;963;42.644;23.336;2022-10-16T14:11:55;94972.34;;;38.18;19.27
1472;BME280;963;42.644;23.336;2022-10-16T14:14:22;94974.25;;;39.17;18.50
1472;BME280;963;42.644;23.336;2022-10-16T14:16:48;94974.56;;;40.51;17.56
1472;BME280;963;42.644;23.336;2022-10-16T14:19:21;94979.88;;;40.63;17.57
1472;BME280;963;42.644;23.336;2022-10-16T14:21:49;94976.91;;;40.95;17.27
1472;BME280;963;42.644;23.336;2022-10-16T14:24:32;94978.00;;;40.91;17.33
1472;BME280;963;42.644;23.336;2022-10-16T14:26:59;94975.44;;;40.33;17.60
1472;BME280;963;42.644;23.336;2022-10-16T14:29:26;94978.19;;;39.67;18.12
1472;BME280;963;42.644;23.336;2022-10-16T14:36:53;94990.53;;;34.68;21.05
1472;BME280;963;42.644;23.336;2022-10-16T14:39:20;94995.22;;;33.97;20.84
1472;BME280;963;42.644;23.336;2022-10-16T14:41:49;94992.97;;;33.58;20.78
1472;BME280;963;42.644;23.336;2022-10-16T14:44:17;94992.97;;;32.75;21.75
1472;BME280;963;42.644;23.336;2022-10-16T14:46:43;94989.59;;;31.78;22.22
1472;BME280;963;42.644;23.336;2022-10-16T14:51:36;94999.19;;;30.08;23.79
1472;BME280;963;42.644;23.336;2022-10-16T14:54:02;95005.50;;;28.51;24.94
1472;BME280;963;42.644;23.336;2022-10-16T14:56:42;95029.88;;;27.83;25.40
1472;BME280;963;42.644;23.336;2022-10-16T14:59:15;95020.94;;;26.59;27.04
1472;BME280;963;42.644;23.336;2022-10-16T15:01:43;95021.97;;;25.54;27.97
1472;BME280;963;42.644;23.336;2022-10-16T15:04:11;95023.34;;;25.20;28.71
1472;BME280;963;42.644;23.336;2022-10-16T15:06:36;95025.44;;;24.58;29.37
1472;BME280;963;42.644;23.336;2022-10-16T15:09:02;95034.16;;;24.01;30.36
1472;BME280;963;42.644;23.336;2022-10-16T15:11:28;95034.56;;;23.67;30.24
1472;BME280;963;42.644;23.336;2022-10-16T15:13:53;95071.34;;;23.14;31.28
1472;BME280;963;42.644;23.336;2022-10-16T15:16:19;95042.88;;;22.81;31.97
1472;BME280;963;42.644;23.336;2022-10-16T15:18:44;95045.50;;;22.61;32.05
1472;BME280;963;42.644;23.336;2022-10-16T15:21:23;95049.91;;;22.28;32.79
1472;BME280;963;42.644;23.336;2022-10-16T15:23:49;95052.44;;;21.88;33.63
1472;BME280;963;42.644;23.336;2022-10-16T15:26:16;95047.53;;;21.60;33.86
1472;BME280;963;42.644;23.336;2022-10-16T15:28:41;95055.25;;;21.27;33.96
1472;BME280;963;42.644;23.336;2022-10-16T15:31:06;95047.38;;;20.82;34.52
1472;BME280;963;42.644;23.336;2022-10-16T15:33:32;95058.53;;;20.74;35.02